AirNav   Bose Proflight aviation headeet
 
 896 users online  

0AL1 Resort Airport
Foley, Alabama, USA

GOING TO FOLEY?


FAA INFORMATION EFFECTIVE 03 JANUARY 2019

Location

FAA Identifier: 0AL1
Lat/Long: 30-26-38.0000N / 087-39-25.0000W
30-26.633333N / 087-39.416667W
30.4438889 / -87.6569444
(estimated)
Elevation: 97 ft. / 30 m (estimated)
Variation: 01E (1990)
From city: 4 miles NE of FOLEY, AL
Time zone: UTC -6 (UTC -5 during Daylight Saving Time)
Zip code: 36535

Airport Operations

Airport use: Private use. Permission required prior to landing
Activation date: 03/1993
Control tower: no
ARTCC: JACKSONVILLE CENTER
FSS: ANNISTON FLIGHT SERVICE STATION
Attendance: UNATNDD
Segmented circle: no

Airport Communications

WX AWOS-3PT at JKA (9 nm S): 134.525 (251-968-7581)
WX AWOS-3PT at CQF (11 nm W): 118.425 (251-928-3242)

Nearby radio navigation aids

VOR radial/distance  VOR name  Freq  Var
NUNr263/(16.7)SAUFLEY VOR108.8001E
BFMr112/23.0BROOKLEY VORTAC112.8004E

 
NDB name  Hdg/Dist  Freq  Var  ID
PICKENS273/24.832602WPKZ .--. -.- --..
WISLE121/38.424801WMOB -- --- -...

Airport Services

Runway Information

Runway 17/35

Dimensions: 2640 x 70 ft. / 805 x 21 m
Surface: turf
RUNWAY 17  RUNWAY 35
Traffic pattern: leftleft
Obstructions: none30 ft. pline, 500 ft. from runway

Airport Ownership and Management from official FAA records

Ownership: Privately-owned
Owner: JACK D. TEAGUE
15120 TEAGUE LN
FOLEY, AL 36536
Phone (251) 978-3828
Manager: JACK D. TEAGUE
15120 TEAGUE LN
FOLEY, AL 36536
Phone (251) 978-3828

Airport Operational Statistics

Aircraft based on the field: 4
Single engine airplanes: 4
    

Instrument Procedures

There are no published instrument procedures at 0AL1.

Some nearby airports with instrument procedures:

5R4 - Foley Municipal Airport (2 nm SW)
KJKA - Jack Edwards National Airport (9 nm S)
KCQF - H L Sonny Callahan Airport (11 nm W)
KNPA - Pensacola Naval Air Station/Forrest Sherman Field (18 nm E)
KBFM - Mobile Downtown Airport (24 nm NW)
 
Loc | Ops | Rwys | IFR | FBO | Links
Com | Nav | Svcs | Stats | Notes

Continental Motors
AirBoss

 
Area around 0AL1 (Resort Airport)
 
Road maps at: MapQuest Bing Google
 
Aerial photo
No photo
 
Sectional chart

 
Airport distance calculator
Flying to Resort Airport? Find the distance to fly.

From to 0AL1

Sunrise and sunset
Times for 18-Jan-2019
 Local
(UTC-6)
 Zulu
(UTC)
Morning civil twilight06:2312:23
Sunrise06:4912:49
Sunset17:1423:14
Evening civil twilight17:3923:39

Current date and time
Zulu (UTC)  19-Jan-2019 01:52:44
Local (UTC-6)  18-Jan-2019 19:52:44
 
METAR
KJKA 
9nm S 
190135Z AUTO 00000KT 10SM SCT023 SCT041 OVC049 16/15 A3004 RMK AO2 T01560145
KCQF 
11nm W 
190135Z AUTO 16004KT 7SM BKN025 BKN032 OVC046 15/15 A3004 RMK AO2
KNPA 
18nm E 
190056Z 21005KT 9SM FEW020 SCT045 SCT180 BKN250 15/14 A3004 RMK AO2 SLP175 T01500144
TAF
KNPA 
18nm E 
1823/1923 22006KT 9999 FEW020 SCT180 BKN250 QNH3001INS FM190600 18010KT 9999 VCSH SCT008 BKN020 OVC045 QNH3000INS TEMPO 1909/1913 BKN008 OVC015 FM191500 19014G21KT 9000 BR VCSH SCT007 BKN015 OVC040 QNH2984INS TEMPO 1915/1921 6000 SHRA BKN007 OVC015 FM192100 19015G24KT 8000 BR VCTS BKN015 BKN030CB OVC060 QNH2970INS TEMPO 1921/1923 VRB25G35KT 1200 +TSRA SCT007 BKN025CB BKN080 OVC120 AUTOMATED SENSOR METWATCH 1903 TIL 1912 T16/1911Z T20/1919Z FN20034
NOTAMs
Click for the latest NOTAMs
NOTAMs are issued by the DoD/FAA and will open in a separate window not controlled by AirNav.

 

 
 

Would you like to see your business listed on this page?

 If your business provides an interesting product or service to pilots, flight crews, aircraft, or users of the Resort Airport, you should consider listing it here.  To start the listing process, click on the button below
 
Add a business
 

Other Pages about Resort Airport

Update a link
 
Copyright © AirNav, LLC. All rights reserved. Privacy Policy  Contact